Time;durP1;ratioP1;P1;durP2;ratioP2;P2;SDS_P1;SDS_P2;PMS_P1;PMS_P2;Temp;Humidity;BMP_temperature;BMP_pressure;BME280_temperature;BME280_humidity;BME280_pressure;Samples;Min_cycle;Max_cycle;Signal;HPM_P1;HPM_P2
2021/01/12 00:01:46;;;;;;;4.82;1.27;;;12.90;99.90;;;;;;5311540;26;20057;-89
2021/01/12 00:04:14;;;;;;;7.18;1.65;;;12.80;99.90;;;;;;5309301;27;20501;-88
2021/01/12 00:06:42;;;;;;;7.35;1.55;;;12.70;99.90;;;;;;5291530;26;20029;-87
2021/01/12 00:09:10;;;;;;;6.07;1.27;;;12.60;99.90;;;;;;5313392;27;20396;-90
2021/01/12 00:11:38;;;;;;;6.37;1.75;;;12.40;99.90;;;;;;5311510;26;20041;-87
2021/01/12 00:14:30;;;;;;;7.60;1.67;;;12.30;99.90;;;;;;5288101;27;20083;-86
2021/01/12 00:16:55;;;;;;;10.15;1.83;;;12.20;99.90;;;;;;5315413;26;20081;-90
2021/01/12 00:19:23;;;;;;;6.70;1.60;;;12.10;99.90;;;;;;5314436;27;20051;-88
2021/01/12 00:21:51;;;;;;;7.05;1.73;;;12.00;99.90;;;;;;5294115;26;20040;-89
2021/01/12 00:24:19;;;;;;;7.87;1.67;;;12.00;99.90;;;;;;5308539;27;20062;-89
2021/01/12 00:26:47;;;;;;;7.72;1.77;;;12.00;99.90;;;;;;5315415;26;20120;-87
2021/01/12 00:29:15;;;;;;;4.15;1.50;;;12.00;99.90;;;;;;5295283;27;20044;-91
2021/01/12 00:31:45;;;;;;;4.45;1.20;;;12.00;99.90;;;;;;5315047;26;20401;-88
2021/01/12 00:34:13;;;;;;;5.00;1.20;;;11.90;99.90;;;;;;5296273;27;20043;-86
2021/01/12 00:36:52;;;;;;;5.03;1.20;;;11.90;99.90;;;;;;5316969;26;20112;-91
2021/01/12 00:39:22;;;;;;;7.50;1.45;;;11.80;99.90;;;;;;5298015;27;20059;-87
2021/01/12 00:41:58;;;;;;;6.32;1.70;;;11.70;99.90;;;;;;5314509;27;20035;-89
2021/01/12 00:44:26;;;;;;;4.97;1.20;;;11.70;99.90;;;;;;5319519;27;20013;-90
2021/01/12 00:46:55;;;;;;;4.43;1.40;;;11.60;99.90;;;;;;5296729;27;20343;-86
2021/01/12 00:49:24;;;;;;;3.78;1.45;;;11.60;99.90;;;;;;5313401;27;20085;-89
2021/01/12 00:51:53;;;;;;;4.47;1.33;;;11.60;99.90;;;;;;5315694;27;20048;-89
2021/01/12 00:54:23;;;;;;;6.43;1.37;;;11.70;99.90;;;;;;5298749;27;20029;-89
2021/01/12 00:56:52;;;;;;;4.32;1.48;;;11.70;99.90;;;;;;5314879;27;20056;-87
2021/01/12 00:59:21;;;;;;;4.50;1.10;;;11.80;99.90;;;;;;5316274;27;20431;-87
2021/01/12 01:01:49;;;;;;;3.90;0.80;;;11.90;99.90;;;;;;5315561;27;20059;-87
2021/01/12 01:04:18;;;;;;;3.22;1.08;;;12.00;99.90;;;;;;5300115;27;20027;-89
2021/01/12 01:06:47;;;;;;;3.90;1.37;;;12.00;99.90;;;;;;5296522;27;20054;-88
2021/01/12 01:09:15;;;;;;;7.82;1.52;;;11.90;99.90;;;;;;5314690;27;20094;-89
2021/01/12 01:11:44;;;;;;;5.07;1.55;;;11.90;99.90;;;;;;5315292;27;20375;-87
2021/01/12 01:14:13;;;;;;;6.65;1.90;;;11.80;99.90;;;;;;5318129;27;20052;-86
2021/01/12 01:16:43;;;;;;;7.78;1.35;;;11.70;99.90;;;;;;5319260;26;20032;-88
2021/01/12 01:19:12;;;;;;;4.18;1.75;;;11.50;99.90;;;;;;5298920;27;20430;-90
2021/01/12 01:21:39;;;;;;;3.78;1.60;;;11.40;99.90;;;;;;5298868;27;20053;-87
2021/01/12 01:24:09;;;;;;;5.03;1.45;;;11.30;99.90;;;;;;5297861;27;20060;-89
2021/01/12 01:26:37;;;;;;;4.12;1.23;;;11.30;99.90;;;;;;5317761;27;20099;-88
2021/01/12 01:29:05;;;;;;;11.10;1.55;;;11.20;99.90;;;;;;5296940;27;20063;-87
2021/01/12 01:31:37;;;;;;;11.40;1.87;;;11.10;99.90;;;;;;5316678;27;20017;-89
2021/01/12 01:34:06;;;;;;;2.97;1.55;;;11.10;99.90;;;;;;5317806;27;20031;-88
2021/01/12 01:36:34;;;;;;;4.87;2.10;;;11.20;99.90;;;;;;5298805;27;20036;-91
2021/01/12 01:39:03;;;;;;;5.82;1.85;;;11.10;99.90;;;;;;5297994;27;20063;-90
2021/01/12 01:41:31;;;;;;;4.45;1.40;;;11.10;99.90;;;;;;5317387;27;20033;-91
2021/01/12 01:44:09;;;;;;;1.02;1.00;;;11.10;99.90;;;;;;5316970;27;20040;-89
2021/01/12 01:46:37;;;;;;;4.20;1.85;;;11.00;99.90;;;;;;5314653;26;20500;-87
2021/01/12 01:49:06;;;;;;;2.75;1.17;;;11.10;99.90;;;;;;5298382;27;20029;-89
2021/01/12 01:51:34;;;;;;;6.07;1.23;;;11.10;99.90;;;;;;5315010;27;20063;-89
2021/01/12 01:54:03;;;;;;;3.67;1.15;;;11.20;99.90;;;;;;5294376;27;20025;-89
2021/01/12 01:56:31;;;;;;;4.90;1.40;;;11.20;99.90;;;;;;5313785;27;20037;-89
2021/01/12 01:59:06;;;;;;;1.95;1.00;;;11.20;99.90;;;;;;5316768;27;20059;-89
2021/01/12 02:01:37;;;;;;;8.20;1.40;;;11.20;99.90;;;;;;5316835;27;20025;-90
2021/01/12 02:04:24;;;;;;;4.55;1.60;;;11.20;99.90;;;;;;5316422;27;20021;-88
2021/01/12 02:06:53;;;;;;;6.22;1.17;;;11.20;99.90;;;;;;5314704;27;20424;-88
2021/01/12 02:09:44;;;;;;;3.20;1.02;;;11.20;99.90;;;;;;5317125;27;20025;-87
2021/01/12 02:12:20;;;;;;;8.85;1.70;;;11.20;99.90;;;;;;5317631;27;20342;-87
2021/01/12 02:14:53;;;;;;;3.95;1.27;;;11.20;99.90;;;;;;5293903;27;20080;-89
2021/01/12 02:17:20;;;;;;;3.65;1.55;;;11.10;99.90;;;;;;5299498;27;20027;-88
2021/01/12 02:19:53;;;;;;;4.80;1.33;;;11.20;99.90;;;;;;5318402;27;20400;-89
2021/01/12 02:22:22;;;;;;;10.15;1.70;;;11.30;99.90;;;;;;5296346;27;20066;-90
2021/01/12 02:24:51;;;;;;;6.05;1.60;;;11.40;99.90;;;;;;5316489;27;20041;-89
2021/01/12 02:27:23;;;;;;;4.57;1.50;;;11.40;99.90;;;;;;5296477;27;20285;-91
2021/01/12 02:29:52;;;;;;;7.12;1.37;;;11.50;99.90;;;;;;5314385;27;20089;-89
2021/01/12 02:32:21;;;;;;;8.07;1.50;;;11.50;99.90;;;;;;5294092;27;20121;-88
2021/01/12 02:34:52;;;;;;;2.15;1.42;;;11.60;99.90;;;;;;5309821;27;20029;-90
2021/01/12 02:37:22;;;;;;;7.05;1.73;;;11.60;99.90;;;;;;5315156;27;20045;-86
2021/01/12 02:40:00;;;;;;;9.77;1.45;;;11.80;99.90;;;;;;5316580;27;20033;-90
2021/01/12 02:42:28;;;;;;;8.18;2.35;;;11.90;99.90;;;;;;5298194;27;20483;-88
2021/01/12 02:44:56;;;;;;;7.85;1.33;;;12.20;99.90;;;;;;5295880;27;20089;-91
2021/01/12 02:47:24;;;;;;;6.18;1.42;;;12.20;99.90;;;;;;5314851;27;20022;-91
2021/01/12 02:49:52;;;;;;;3.65;1.40;;;12.20;99.90;;;;;;5316689;27;20283;-88
2021/01/12 02:52:20;;;;;;;3.42;1.77;;;12.20;99.90;;;;;;5293114;27;20056;-89
2021/01/12 02:54:48;;;;;;;3.67;1.23;;;12.20;99.90;;;;;;5315407;27;20052;-90
2021/01/12 02:57:16;;;;;;;5.43;2.00;;;12.30;99.90;;;;;;5315581;27;20034;-88
2021/01/12 02:59:44;;;;;;;7.03;1.45;;;12.20;99.90;;;;;;5297795;27;20054;-92
2021/01/12 03:02:12;;;;;;;9.32;1.67;;;12.20;99.90;;;;;;5314831;27;20026;-90
2021/01/12 03:04:40;;;;;;;5.40;1.65;;;12.20;99.90;;;;;;5297575;27;20074;-91
2021/01/12 03:07:08;;;;;;;4.65;1.92;;;12.20;99.90;;;;;;5296332;27;20098;-92
2021/01/12 03:09:36;;;;;;;2.30;1.30;;;12.20;99.90;;;;;;5314608;27;20111;-90
2021/01/12 03:15:31;;;;;;;;;;;12.20;99.90;;;;;;5298627;26;20320;-89
2021/01/12 03:17:59;;;;;;;7.65;2.40;;;12.10;99.90;;;;;;5297316;27;20009;-89
2021/01/12 03:20:28;;;;;;;2.67;1.20;;;12.20;99.90;;;;;;5304558;26;20041;-90
2021/01/12 03:26:22;;;;;;;;;;;12.40;99.90;;;;;;5287704;26;20508;-88
2021/01/12 03:28:50;;;;;;;4.00;1.60;;;12.30;99.90;;;;;;5317172;27;19940;-88
2021/01/12 03:31:18;;;;;;;3.78;1.20;;;12.20;99.90;;;;;;5294758;27;20029;-88
2021/01/12 03:33:46;;;;;;;3.05;1.20;;;12.20;99.90;;;;;;5316725;27;20025;-87
2021/01/12 03:36:14;;;;;;;2.65;1.20;;;12.10;99.90;;;;;;5294720;27;20024;-87
2021/01/12 03:38:42;;;;;;;2.85;1.15;;;12.10;99.90;;;;;;5293711;27;20558;-88
2021/01/12 03:41:10;;;;;;;4.68;1.48;;;12.10;99.90;;;;;;5292793;27;20049;-87
2021/01/12 03:43:38;;;;;;;1.33;1.23;;;12.00;99.90;;;;;;5278600;27;20033;-88
2021/01/12 03:46:06;;;;;;;2.67;1.23;;;12.00;99.90;;;;;;5295948;27;20332;-88
2021/01/12 03:48:35;;;;;;;1.23;0.90;;;11.90;99.90;;;;;;5297316;27;20021;-87
2021/01/12 03:51:04;;;;;;;2.62;1.25;;;11.90;99.90;;;;;;5276611;27;20044;-87
2021/01/12 03:53:31;;;;;;;1.60;1.10;;;11.90;99.90;;;;;;5298608;27;20049;-88
2021/01/12 03:56:00;;;;;;;2.50;1.33;;;11.80;99.90;;;;;;5298052;27;20418;-87
2021/01/12 03:58:29;;;;;;;3.58;1.00;;;11.80;99.90;;;;;;5296188;27;20044;-86
2021/01/12 04:00:56;;;;;;;3.42;1.77;;;11.70;99.90;;;;;;5315174;27;20049;-87
2021/01/12 04:03:28;;;;;;;6.45;0.90;;;11.70;99.90;;;;;;5298318;27;20025;-88
2021/01/12 04:05:56;;;;;;;2.25;1.15;;;11.80;99.90;;;;;;5318362;27;20021;-88
2021/01/12 04:08:24;;;;;;;2.22;1.70;;;11.70;99.90;;;;;;5277021;27;20044;-87
2021/01/12 04:10:52;;;;;;;2.62;0.98;;;11.80;99.90;;;;;;5316268;27;20359;-87
2021/01/12 04:13:24;;;;;;;3.17;1.02;;;11.80;99.90;;;;;;5318089;27;20177;-88
2021/01/12 04:15:52;;;;;;;2.00;0.93;;;11.80;99.90;;;;;;5298967;27;20079;-88
2021/01/12 04:18:21;;;;;;;2.80;1.12;;;11.80;99.90;;;;;;5317391;27;20033;-87
2021/01/12 04:20:48;;;;;;;3.83;1.02;;;11.90;99.90;;;;;;5317053;27;20076;-88
2021/01/12 04:23:17;;;;;;;1.17;1.05;;;11.90;99.90;;;;;;5298109;27;20039;-88
2021/01/12 04:25:45;;;;;;;2.92;1.20;;;11.90;99.90;;;;;;5295402;27;20055;-88
2021/01/12 04:28:13;;;;;;;2.60;1.00;;;11.90;99.90;;;;;;5295744;27;20459;-88
2021/01/12 04:30:41;;;;;;;1.25;0.90;;;12.00;99.90;;;;;;5297107;27;20029;-87
2021/01/12 04:33:09;;;;;;;5.80;2.00;;;12.00;99.90;;;;;;5296809;27;20051;-88
2021/01/12 04:35:37;;;;;;;4.60;1.10;;;12.10;99.90;;;;;;5279464;27;20028;-88
2021/01/12 04:38:06;;;;;;;2.60;1.08;;;12.10;99.90;;;;;;5315639;27;20467;-87
2021/01/12 04:40:35;;;;;;;3.60;1.10;;;12.10;99.90;;;;;;5279631;27;20479;-87
2021/01/12 04:43:03;;;;;;;3.45;0.95;;;12.20;99.90;;;;;;5316935;27;20060;-88
2021/01/12 04:45:31;;;;;;;4.40;1.15;;;12.20;99.90;;;;;;5294205;27;20033;-87
2021/01/12 04:47:59;;;;;;;3.08;1.30;;;12.20;99.90;;;;;;5317017;27;20037;-87
2021/01/12 04:50:27;;;;;;;4.35;1.40;;;12.20;99.90;;;;;;5317582;27;20021;-87
2021/01/12 04:52:55;;;;;;;2.65;1.00;;;12.20;99.90;;;;;;5297852;27;20025;-86
2021/01/12 04:55:23;;;;;;;3.25;1.17;;;12.20;99.90;;;;;;5294910;27;20066;-87
2021/01/12 04:57:52;;;;;;;7.65;1.10;;;12.10;99.90;;;;;;5277793;27;20337;-87
2021/01/12 05:00:32;;;;;;;3.60;1.00;;;12.20;99.90;;;;;;5317758;27;20324;-88
2021/01/12 05:03:05;;;;;;;3.08;1.20;;;12.10;99.90;;;;;;5296597;27;20407;-87
2021/01/12 05:05:40;;;;;;;2.78;1.58;;;12.10;99.90;;;;;;5295389;27;20036;-87
2021/01/12 05:08:13;;;;;;;3.78;1.50;;;12.10;99.90;;;;;;5297623;27;20013;-87
2021/01/12 05:10:41;;;;;;;4.10;1.08;;;12.00;99.90;;;;;;5297760;27;20041;-88
2021/01/12 05:13:11;;;;;;;2.22;1.20;;;12.00;99.90;;;;;;5274628;27;20108;-86
2021/01/12 05:15:46;;;;;;;2.35;1.17;;;12.00;99.90;;;;;;5318011;27;20020;-87
2021/01/12 05:18:18;;;;;;;3.65;1.00;;;12.00;99.90;;;;;;5316741;27;20027;-87
2021/01/12 05:20:50;;;;;;;7.15;1.50;;;12.10;99.90;;;;;;5318744;27;20066;-87
2021/01/12 05:23:24;;;;;;;4.47;2.10;;;12.10;99.90;;;;;;5297811;27;20017;-87
2021/01/12 05:25:53;;;;;;;2.97;0.80;;;12.00;99.90;;;;;;5317970;27;20386;-88
2021/01/12 05:28:22;;;;;;;2.90;1.45;;;11.90;99.90;;;;;;5296290;27;20025;-87
2021/01/12 05:30:52;;;;;;;2.03;1.23;;;11.80;99.90;;;;;;5316478;27;20045;-87
2021/01/12 05:33:20;;;;;;;1.73;1.20;;;11.80;99.90;;;;;;5278078;27;20044;-87
2021/01/12 05:35:49;;;;;;;7.75;1.20;;;11.80;99.90;;;;;;5296065;27;20031;-87
2021/01/12 05:38:28;;;;;;;1.12;1.00;;;11.70;99.90;;;;;;5313162;27;20056;-88
2021/01/12 05:41:02;;;;;;;2.67;1.48;;;11.60;99.90;;;;;;5279355;27;20101;-87
2021/01/12 05:43:39;;;;;;;4.18;1.20;;;11.60;99.90;;;;;;5297329;27;20013;-87
2021/01/12 05:46:12;;;;;;;6.15;2.05;;;11.60;99.90;;;;;;5298490;27;20047;-87
2021/01/12 05:48:46;;;;;;;3.33;1.30;;;11.60;99.90;;;;;;5317017;27;20059;-87
2021/01/12 05:51:16;;;;;;;13.07;1.42;;;11.50;99.90;;;;;;5297752;27;20032;-87
2021/01/12 05:53:47;;;;;;;6.18;1.30;;;11.50;99.90;;;;;;5279321;27;20055;-87
2021/01/12 05:56:23;;;;;;;1.85;1.00;;;11.40;99.90;;;;;;5318455;27;20034;-87
2021/01/12 05:58:53;;;;;;;5.20;1.30;;;11.30;99.90;;;;;;5292532;27;20072;-87
2021/01/12 06:01:54;;;;;;;2.37;1.23;;;11.20;99.90;;;;;;5318088;27;20025;-86
2021/01/12 06:04:24;;;;;;;5.15;1.58;;;11.20;99.90;;;;;;5302458;27;20064;-87
2021/01/12 06:06:56;;;;;;;2.97;1.20;;;11.10;99.90;;;;;;5294012;27;20024;-87
2021/01/12 06:09:25;;;;;;;5.68;1.52;;;11.20;99.90;;;;;;5291771;27;20021;-88
2021/01/12 06:11:54;;;;;;;10.55;2.17;;;11.20;99.90;;;;;;5313749;27;20486;-88
2021/01/12 06:14:23;;;;;;;4.10;1.75;;;11.20;99.90;;;;;;5292286;27;20033;-87
2021/01/12 06:16:52;;;;;;;4.12;1.52;;;11.20;99.90;;;;;;5313381;27;20044;-86
2021/01/12 06:19:25;;;;;;;6.25;1.40;;;11.30;99.90;;;;;;5314426;27;20052;-86
2021/01/12 06:21:56;;;;;;;6.70;1.05;;;11.40;99.90;;;;;;5297437;27;20072;-87
2021/01/12 06:24:42;;;;;;;6.32;1.10;;;11.40;99.90;;;;;;5295164;27;20066;-87
2021/01/12 06:27:11;;;;;;;3.92;1.15;;;11.40;99.90;;;;;;5312029;27;20052;-87
2021/01/12 06:29:41;;;;;;;1.70;1.30;;;11.40;99.90;;;;;;5293894;27;20340;-87
2021/01/12 06:32:14;;;;;;;2.67;1.33;;;11.50;99.90;;;;;;5298097;27;20028;-86
2021/01/12 06:34:42;;;;;;;1.62;1.17;;;11.60;99.90;;;;;;5296468;27;20023;-86
2021/01/12 06:37:12;;;;;;;4.03;1.58;;;11.60;99.90;;;;;;5296202;27;20368;-87
2021/01/12 06:39:43;;;;;;;3.47;1.58;;;11.70;99.90;;;;;;5296736;27;20366;-87
2021/01/12 06:42:26;;;;;;;6.45;1.23;;;11.70;99.90;;;;;;5296295;27;20021;-87
2021/01/12 06:44:56;;;;;;;3.55;1.33;;;11.70;99.90;;;;;;5295934;27;20035;-87
2021/01/12 06:47:30;;;;;;;1.08;0.98;;;11.70;99.90;;;;;;5313046;27;20021;-86
2021/01/12 06:50:16;;;;;;;6.47;1.10;;;11.80;99.90;;;;;;5313786;27;20103;-86
2021/01/12 06:52:47;;;;;;;6.57;1.65;;;11.90;99.90;;;;;;5297110;27;20013;-87
2021/01/12 06:55:16;;;;;;;2.87;1.20;;;11.90;99.90;;;;;;5293997;27;20044;-86
2021/01/12 06:57:46;;;;;;;3.83;1.50;;;11.80;99.90;;;;;;5293169;27;20053;-87
2021/01/12 07:00:15;;;;;;;1.70;1.10;;;11.80;99.90;;;;;;5294327;27;20029;-88
2021/01/12 07:02:44;;;;;;;4.45;1.33;;;11.80;99.90;;;;;;5315736;27;20048;-87
2021/01/12 07:05:15;;;;;;;2.35;0.75;;;11.80;99.90;;;;;;5297318;27;20028;-87
2021/01/12 07:07:49;;;;;;;2.00;1.08;;;11.80;99.90;;;;;;5273818;27;20061;-88
2021/01/12 07:10:27;;;;;;;2.70;0.98;;;11.90;99.90;;;;;;5315238;27;20137;-87
2021/01/12 07:12:54;;;;;;;3.03;1.10;;;11.90;99.90;;;;;;5296378;27;20783;-86
2021/01/12 07:15:23;;;;;;;3.78;1.10;;;11.80;99.90;;;;;;5274885;27;20076;-87
2021/01/12 07:17:55;;;;;;;2.17;1.10;;;11.70;99.90;;;;;;5312070;27;20045;-87
2021/01/12 07:20:24;;;;;;;2.12;1.40;;;11.70;99.90;;;;;;5295501;27;20067;-88
2021/01/12 07:22:59;;;;;;;1.10;1.00;;;11.80;99.90;;;;;;5297476;27;20507;-88
2021/01/12 07:25:40;;;;;;;2.35;1.40;;;11.70;99.90;;;;;;5294382;27;20062;-87
2021/01/12 07:28:14;;;;;;;4.78;0.98;;;11.60;99.90;;;;;;5292365;27;20048;-87
2021/01/12 07:30:48;;;;;;;5.43;1.02;;;11.50;99.90;;;;;;5277676;27;20212;-87
2021/01/12 07:33:15;;;;;;;5.57;1.05;;;11.30;99.90;;;;;;5277661;27;20029;-87
2021/01/12 07:35:47;;;;;;;3.87;1.17;;;11.30;99.90;;;;;;5293274;27;20021;-87
2021/01/12 07:38:29;;;;;;;2.05;1.25;;;11.10;99.90;;;;;;5294293;27;20525;-87
2021/01/12 07:40:59;;;;;;;2.10;1.17;;;11.00;99.90;;;;;;5276069;27;20559;-87
2021/01/12 07:43:28;;;;;;;4.45;1.00;;;10.90;99.90;;;;;;5296092;27;20020;-87
2021/01/12 07:46:01;;;;;;;6.15;1.10;;;10.90;99.90;;;;;;5312423;27;20033;-87
2021/01/12 07:48:30;;;;;;;2.30;1.20;;;10.90;99.90;;;;;;5295193;27;20062;-87
2021/01/12 07:51:01;;;;;;;5.12;0.88;;;10.90;99.90;;;;;;5314090;27;20421;-87
2021/01/12 07:53:31;;;;;;;5.37;1.50;;;10.90;99.90;;;;;;5313572;27;20405;-87
2021/01/12 07:56:00;;;;;;;1.23;0.85;;;10.90;99.90;;;;;;5314914;27;20305;-87
2021/01/12 07:58:30;;;;;;;1.83;0.93;;;10.90;99.90;;;;;;5296015;27;20086;-86
2021/01/12 08:00:59;;;;;;;2.80;0.90;;;11.00;99.90;;;;;;5293371;27;20029;-87
2021/01/12 08:03:41;;;;;;;4.10;0.95;;;11.00;99.90;;;;;;5315937;27;20017;-87
2021/01/12 08:06:09;;;;;;;1.77;1.00;;;11.00;99.90;;;;;;5297069;27;20025;-87
2021/01/12 08:08:37;;;;;;;3.97;1.17;;;11.00;99.90;;;;;;5314321;27;20032;-87
2021/01/12 08:11:07;;;;;;;1.65;1.05;;;11.30;99.90;;;;;;5296788;27;20033;-87
2021/01/12 08:13:35;;;;;;;2.50;1.48;;;12.60;99.90;;;;;;5294805;27;20025;-88
2021/01/12 08:16:09;;;;;;;3.17;1.20;;;13.90;99.90;;;;;;5313355;27;20290;-88
2021/01/12 08:18:37;;;;;;;3.00;1.58;;;15.10;99.90;;;;;;5316845;27;20026;-88
2021/01/12 08:21:05;;;;;;;5.45;1.25;;;16.10;99.90;;;;;;5297433;27;20059;-88
2021/01/12 08:23:33;;;;;;;1.90;1.50;;;17.00;98.80;;;;;;5312812;27;20061;-88
2021/01/12 08:26:09;;;;;;;3.83;1.52;;;18.20;96.80;;;;;;5313023;27;20033;-88
2021/01/12 08:28:38;;;;;;;3.35;1.20;;;19.60;93.50;;;;;;5316550;27;20062;-89
2021/01/12 08:31:16;;;;;;;2.62;1.25;;;21.10;90.00;;;;;;5295851;27;20476;-88
2021/01/12 08:33:48;;;;;;;2.03;1.25;;;21.90;76.70;;;;;;5311993;27;20039;-89
2021/01/12 08:36:18;;;;;;;3.55;1.50;;;22.60;73.80;;;;;;5294980;27;20025;-88
2021/01/12 08:38:53;;;;;;;3.50;1.60;;;23.00;71.70;;;;;;5296817;27;20021;-89
2021/01/12 08:41:23;;;;;;;1.40;1.30;;;23.10;68.00;;;;;;5299265;27;20017;-89
2021/01/12 08:43:57;;;;;;;3.62;1.40;;;24.00;62.40;;;;;;5314156;27;20093;-89
2021/01/12 08:46:29;;;;;;;1.85;1.40;;;24.80;58.20;;;;;;5276582;27;20029;-89
2021/01/12 08:48:57;;;;;;;1.87;1.50;;;25.70;52.40;;;;;;5316764;27;20017;-89
2021/01/12 08:51:31;;;;;;;1.67;1.40;;;26.60;53.10;;;;;;5300793;27;20029;-88
2021/01/12 08:53:59;;;;;;;1.60;1.53;;;27.00;46.90;;;;;;5316946;27;20382;-89
2021/01/12 08:56:28;;;;;;;2.55;1.40;;;27.60;46.80;;;;;;5298754;27;20056;-90
2021/01/12 08:59:07;;;;;;;1.67;1.30;;;27.40;44.00;;;;;;5318728;27;20058;-89
2021/01/12 09:01:38;;;;;;;1.80;1.70;;;26.40;43.10;;;;;;5316947;27;20031;-89
2021/01/12 09:04:09;;;;;;;1.60;1.50;;;25.70;43.20;;;;;;5291092;27;20497;-90
2021/01/12 09:06:37;;;;;;;2.10;1.87;;;26.00;43.80;;;;;;5313302;27;20020;-89
2021/01/12 09:09:10;;;;;;;2.00;1.70;;;27.00;43.80;;;;;;5295112;27;20056;-90
2021/01/12 09:11:49;;;;;;;2.12;1.95;;;27.50;42.90;;;;;;5293944;27;20025;-89
2021/01/12 09:14:19;;;;;;;1.83;1.65;;;28.20;42.30;;;;;;5313762;27;20021;-89
2021/01/12 09:16:53;;;;;;;2.10;2.00;;;28.50;39.80;;;;;;5315537;27;20399;-89
2021/01/12 09:19:22;;;;;;;2.83;2.10;;;29.00;38.10;;;;;;5295367;27;20009;-89
2021/01/12 09:21:50;;;;;;;3.33;2.00;;;29.10;36.10;;;;;;5318050;27;20032;-89
2021/01/12 09:24:20;;;;;;;2.70;2.03;;;29.90;35.20;;;;;;5314977;27;20339;-89
2021/01/12 09:26:48;;;;;;;2.87;2.00;;;30.60;34.20;;;;;;5317432;27;20025;-89
2021/01/12 09:29:17;;;;;;;2.95;1.95;;;30.40;33.00;;;;;;5315769;27;20028;-91
2021/01/12 09:31:47;;;;;;;2.20;2.00;;;30.80;32.50;;;;;;5318492;27;20025;-89
2021/01/12 09:34:22;;;;;;;2.30;2.20;;;30.80;32.00;;;;;;5315624;27;20031;-90
2021/01/12 09:36:51;;;;;;;2.30;2.10;;;30.90;31.60;;;;;;5317992;27;20070;-89
2021/01/12 09:39:19;;;;;;;2.25;2.10;;;30.30;30.60;;;;;;5317003;27;20028;-89
2021/01/12 09:41:52;;;;;;;3.30;2.17;;;31.00;30.40;;;;;;5294215;27;20037;-90
2021/01/12 09:44:20;;;;;;;3.40;2.20;;;31.90;28.50;;;;;;5316315;27;20037;-89
2021/01/12 09:46:48;;;;;;;2.35;2.15;;;33.10;28.40;;;;;;5316552;27;20086;-89
2021/01/12 09:49:16;;;;;;;1.00;0.50;;;33.60;27.40;;;;;;5316339;27;20461;-89
2021/01/12 09:51:45;;;;;;;2.75;0.60;;;32.10;27.70;;;;;;5295689;27;20029;-88
2021/01/12 09:54:13;;;;;;;3.10;0.50;;;28.30;29.90;;;;;;5316471;27;20085;-87
2021/01/12 09:56:41;;;;;;;2.25;0.60;;;24.80;38.40;;;;;;5315825;27;20284;-87
2021/01/12 09:59:09;;;;;;;3.58;0.80;;;21.10;52.50;;;;;;5317253;27;20068;-87
2021/01/12 10:01:37;;;;;;;2.58;1.00;;;18.20;72.40;;;;;;5315213;27;20029;-88
2021/01/12 10:04:05;;;;;;;3.92;0.93;;;17.90;73.50;;;;;;5315592;27;20052;-87
2021/01/12 10:06:55;;;;;;;1.87;1.00;;;17.20;90.10;;;;;;5295674;27;20533;-87
2021/01/12 10:09:24;;;;;;;1.70;1.00;;;16.90;91.30;;;;;;5316718;27;20056;-87
2021/01/12 10:11:53;;;;;;;0.57;0.57;;;17.00;93.00;;;;;;5297064;27;20063;-87
2021/01/12 10:14:24;;;;;;;2.62;1.30;;;16.90;92.30;;;;;;5296980;27;20044;-86
2021/01/12 10:16:52;;;;;;;1.23;0.82;;;17.10;92.70;;;;;;5274988;27;20025;-87
2021/01/12 10:19:20;;;;;;;3.92;1.02;;;17.00;92.10;;;;;;5317207;27;20029;-86
2021/01/12 10:21:49;;;;;;;3.78;0.82;;;17.10;94.40;;;;;;5313187;27;20044;-87
2021/01/12 10:24:17;;;;;;;2.25;0.88;;;17.00;94.70;;;;;;5315579;27;20028;-87
2021/01/12 10:26:47;;;;;;;1.25;0.90;;;17.00;94.50;;;;;;5314903;27;20071;-87
2021/01/12 10:29:15;;;;;;;2.97;1.10;;;17.20;98.00;;;;;;5295898;27;20059;-86
2021/01/12 10:31:44;;;;;;;3.60;0.77;;;17.10;94.30;;;;;;5315274;27;20133;-87
2021/01/12 10:34:11;;;;;;;1.75;0.80;;;16.90;94.70;;;;;;5311584;27;20090;-86
2021/01/12 10:36:40;;;;;;;2.55;0.88;;;16.80;94.80;;;;;;5316730;27;20075;-86
2021/01/12 10:39:09;;;;;;;3.75;1.23;;;16.60;95.40;;;;;;5296650;27;20145;-87
2021/01/12 10:41:39;;;;;;;0.90;0.85;;;16.60;95.50;;;;;;5316533;27;20040;-86
2021/01/12 10:44:07;;;;;;;1.10;0.95;;;16.80;96.10;;;;;;5315108;27;20036;-87
2021/01/12 10:46:35;;;;;;;0.90;0.90;;;16.90;95.80;;;;;;5296906;27;20070;-87
2021/01/12 10:49:04;;;;;;;0.98;0.90;;;16.90;95.50;;;;;;5316825;27;20067;-87
2021/01/12 10:51:32;;;;;;;1.83;0.82;;;17.20;95.10;;;;;;5295621;27;20029;-87
2021/01/12 10:54:00;;;;;;;3.03;1.23;;;17.30;95.10;;;;;;5296062;27;20028;-87
2021/01/12 10:56:28;;;;;;;3.12;1.30;;;17.40;94.70;;;;;;5296622;27;20025;-87
2021/01/12 10:58:56;;;;;;;1.52;0.82;;;17.20;94.60;;;;;;5315561;27;20025;-87
2021/01/12 11:01:25;;;;;;;3.80;1.00;;;17.40;95.50;;;;;;5295890;27;20040;-86
2021/01/12 11:03:53;;;;;;;1.67;0.88;;;17.40;94.50;;;;;;5315762;27;20060;-87
2021/01/12 11:06:22;;;;;;;2.85;1.20;;;17.30;95.50;;;;;;5296531;27;20036;-87
2021/01/12 11:08:53;;;;;;;1.27;0.80;;;17.10;96.60;;;;;;5316964;27;20033;-87
2021/01/12 11:11:21;;;;;;;3.47;1.30;;;17.10;96.80;;;;;;5295742;27;20448;-87
2021/01/12 11:13:51;;;;;;;1.27;0.90;;;16.80;97.60;;;;;;5316447;27;20033;-87
2021/01/12 11:16:19;;;;;;;5.03;1.25;;;16.80;97.70;;;;;;5315693;27;20065;-87
2021/01/12 11:18:47;;;;;;;5.25;1.10;;;16.90;98.00;;;;;;5316574;27;20025;-86
2021/01/12 11:21:15;;;;;;;3.87;1.48;;;16.90;98.80;;;;;;5313421;27;20415;-87
2021/01/12 11:23:44;;;;;;;4.57;1.25;;;17.00;99.30;;;;;;5315707;27;20067;-87
2021/01/12 11:26:12;;;;;;;4.15;1.05;;;17.00;99.40;;;;;;5296293;27;20028;-86
2021/01/12 11:28:40;;;;;;;2.45;0.90;;;17.00;99.10;;;;;;5314172;27;20035;-87
2021/01/12 11:31:09;;;;;;;2.58;1.33;;;17.20;98.50;;;;;;5316907;27;20066;-87
2021/01/12 11:33:37;;;;;;;2.70;0.90;;;17.30;98.40;;;;;;5315741;27;20051;-87
2021/01/12 11:36:05;;;;;;;1.40;1.30;;;17.50;97.90;;;;;;5313983;27;20029;-87
2021/01/12 11:38:40;;;;;;;1.48;1.37;;;17.50;96.60;;;;;;5315520;27;20018;-86
2021/01/12 11:41:10;;;;;;;1.52;1.40;;;17.60;95.70;;;;;;5315180;27;20670;-87
2021/01/12 11:43:39;;;;;;;1.80;1.65;;;17.80;94.90;;;;;;5317169;27;20411;-87
2021/01/12 11:46:07;;;;;;;1.65;1.25;;;18.10;95.20;;;;;;5314139;27;20029;-87
2021/01/12 11:48:37;;;;;;;1.80;1.12;;;18.50;94.20;;;;;;5315004;27;20063;-87
2021/01/12 11:51:05;;;;;;;7.70;2.05;;;18.80;92.50;;;;;;5295223;27;20450;-87
2021/01/12 11:53:33;;;;;;;1.48;1.37;;;18.60;89.70;;;;;;5295766;27;20059;-87
2021/01/12 11:56:01;;;;;;;3.03;2.28;;;18.80;91.00;;;;;;5298570;27;20036;-87
2021/01/12 11:58:30;;;;;;;3.37;1.08;;;18.80;90.80;;;;;;5315149;27;20404;-88
2021/01/12 12:00:58;;;;;;;4.12;1.10;;;19.20;90.60;;;;;;5317487;27;20058;-87
2021/01/12 12:03:26;;;;;;;1.48;1.00;;;19.80;89.60;;;;;;5316418;27;20029;-87
2021/01/12 12:05:54;;;;;;;2.37;1.85;;;20.20;82.40;;;;;;5296244;27;20078;-87
2021/01/12 12:08:22;;;;;;;3.72;2.90;;;20.40;84.20;;;;;;5314035;27;20025;-88
2021/01/12 12:10:50;;;;;;;1.92;1.83;;;21.50;79.50;;;;;;5296100;27;20455;-88
2021/01/12 12:13:19;;;;;;;1.70;1.60;;;23.60;72.90;;;;;;5316781;27;20070;-87
2021/01/12 12:15:47;;;;;;;2.17;2.08;;;24.70;61.80;;;;;;5318327;27;20029;-88
2021/01/12 12:18:16;;;;;;;1.75;0.90;;;25.80;60.40;;;;;;5296214;27;20404;-88
2021/01/12 12:20:44;;;;;;;2.05;1.30;;;23.90;60.80;;;;;;5297267;27;20512;-88
2021/01/12 12:23:12;;;;;;;1.80;1.60;;;23.00;63.00;;;;;;5296006;27;20091;-88
2021/01/12 12:25:40;;;;;;;3.00;2.10;;;23.70;61.50;;;;;;5316341;27;20902;-87
2021/01/12 12:28:08;;;;;;;1.20;1.00;;;24.50;58.30;;;;;;5316380;27;20044;-89
2021/01/12 12:30:36;;;;;;;1.73;0.88;;;24.70;57.20;;;;;;5316672;27;20763;-87
2021/01/12 12:33:05;;;;;;;4.32;1.17;;;22.90;60.20;;;;;;5298791;27;20029;-87
2021/01/12 12:35:33;;;;;;;2.05;1.27;;;21.60;65.80;;;;;;5316483;27;20059;-87
2021/01/12 12:38:01;;;;;;;0.98;0.80;;;21.70;62.50;;;;;;5318386;27;20049;-87
2021/01/12 12:40:29;;;;;;;0.85;0.80;;;21.30;64.20;;;;;;5316722;27;20040;-87
2021/01/12 12:42:57;;;;;;;0.90;0.90;;;20.10;67.70;;;;;;5295917;27;20059;-87
2021/01/12 12:45:25;;;;;;;1.87;0.80;;;20.60;67.30;;;;;;5317664;27;20333;-87
2021/01/12 12:47:53;;;;;;;0.85;0.60;;;19.80;69.80;;;;;;5317383;27;20060;-86
2021/01/12 12:50:22;;;;;;;2.35;0.60;;;19.00;70.30;;;;;;5297183;27;20025;-86
2021/01/12 12:52:50;;;;;;;2.15;0.60;;;18.50;71.20;;;;;;5317857;27;20094;-85
2021/01/12 12:55:18;;;;;;;2.60;1.40;;;18.20;73.40;;;;;;5317240;27;20032;-86
2021/01/12 12:57:46;;;;;;;2.47;1.33;;;19.00;73.40;;;;;;5317938;27;20029;-86
2021/01/12 13:00:16;;;;;;;1.27;1.17;;;19.80;69.50;;;;;;5316217;27;20065;-87
2021/01/12 13:02:45;;;;;;;2.60;0.85;;;20.10;69.80;;;;;;5296847;27;20087;-87
2021/01/12 13:05:13;;;;;;;1.05;0.80;;;19.90;70.80;;;;;;5314250;27;20092;-87
2021/01/12 13:07:41;;;;;;;2.78;0.85;;;19.90;70.00;;;;;;5316594;27;20029;-87
2021/01/12 13:10:12;;;;;;;3.08;0.90;;;19.70;70.30;;;;;;5316073;27;20029;-87